鳥取空港の過去48時間の天気

鳥取空港 (Tottori)

現在時刻: 1/25 15:48 JST (1/25 06:48 UTC) 以下の時間は現地時間です。

過去48時間のMETAR気象情報
時間 風向 風速(m/s) 視程 気温(℃) 湿度(%) 気圧(hPa) 天気現象
25 15:00 北東 6 10km以上 8 57 1028
25 14:00 北東 6 10km以上 9 53 1028
25 13:00 東北東 6 10km以上 8 57 1029
25 12:00 東北東 5 10km以上 8 57 1029
25 11:00 5 10km以上 8 57 1030
25 10:00 5 10km以上 7 61 1031
25 09:00 5 10km以上 8 53 1031
25 08:00 南南東 2 10km以上 6 65 1031
25 07:00 東南東 3 10km以上 6 61 1030
25 06:30 東南東 3 10km以上 6 61 1030
24 21:00 北東 10 10km以上 8 71 1030
24 20:00 北東 11 10km以上 9 71 1030
24 19:00 北北東 11 8000m 9 76 1029 弱いしゅう雨
24 18:00 北北東 11 7000m 9 81 1028 弱いしゅう雨
24 17:00 北北東 11 10km以上 9 87 1027 弱いしゅう雨
24 16:00 北北東 11 8000m 10 82 1027 弱いしゅう雨
24 15:00 北北東 9 7000m 10 87 1026 弱いしゅう雨
24 14:00 2 10km以上 13 58 1026
24 13:00 4 10km以上 12 62 1026
24 12:00 4 10km以上 12 58 1026
24 11:00 北北東 4 10km以上 12 58 1027
24 10:00 6 10km以上 12 62 1027
24 09:00 7 10km以上 12 71 1026
24 08:00 北北東 7 10km以上 12 77 1025
24 07:00 5 10km以上 12 77 1024
24 06:30 不定 1 10km以上 10 100 1024
24 06:10 不定 1 10km以上 10 100 1023
23 21:00 北北東 4 10km以上 12 88 1021
23 20:00 北北東 5 10km以上 12 94 1021 弱いしゅう雨
23 19:00 北北東 3 10km以上 12 94 1020
23 18:00 北北東 5 10km以上 12 94 1020 弱いしゅう雨
23 17:00 4 10km以上 12 94 1019
23 16:00 4 10km以上 12 94 1018
RJOR 250600Z 05011KT 9999 FEW030 SCT150 BKN/// 08/00 Q1028
RJOR 250500Z 05011KT 9999 FEW030 SCT050 BKN150 09/00 Q1028
RJOR 250400Z 07011KT 9999 FEW030 SCT040 BKN050 08/00 Q1029
RJOR 250300Z 06010KT 020V090 9999 FEW030 SCT050 BKN150 08/00 Q1029
RJOR 250200Z 08009KT 9999 FEW030 SCT040 BKN050 08/M00 Q1030
RJOR 250100Z 09009KT 9999 FEW030 SCT040 BKN050 07/00 Q1031
RJOR 250000Z 09010KT 9999 FEW020 SCT040 BKN/// 08/M01 Q1031
RJOR 242300Z 16004KT 120V190 9999 FEW020 SCT030 BKN040 06/M00 Q1031
RJOR 242200Z 12005KT 9999 FEW030 BKN045 06/M01 Q1030
RJOR 242130Z 12005KT 9999 FEW020 SCT030 BKN050 06/M01 Q1030
RJOR 241200Z 04019KT 9999 FEW010 SCT020 BKN030 08/03 Q1030
RJOR 241100Z 04022KT 9999 FEW010 SCT020 BKN030 09/04 Q1030
RJOR 241000Z 03021KT 8000 -SHRA FEW010 SCT020 BKN030 09/05 Q1029
RJOR 240900Z 03021KT 7000 -SHRA FEW010 SCT020 BKN030 09/06 Q1028
RJOR 240800Z 03022KT 9999 -SHRA FEW010 SCT020 BKN030 09/07 Q1027
RJOR 240700Z 03021KT 8000 -SHRA FEW010 SCT020 BKN030 10/07 Q1027
RJOR 240600Z 03018KT 7000 -SHRA FEW010 SCT025 BKN045 10/08 Q1026
RJOR 240500Z 01004KT 9999 FEW030 SCT040 BKN070 13/05 Q1026
RJOR 240400Z 01008KT 9999 FEW030 SCT040 BKN060 12/05 Q1026
RJOR 240300Z 01007KT 9999 FEW020 SCT030 BKN050 12/04 Q1026
RJOR 240200Z 02008KT 9999 FEW015 SCT030 BKN040 12/04 Q1027
RJOR 240100Z 01012KT 9999 FEW010 SCT020 BKN030 12/05 Q1027
RJOR 240000Z 01013KT 9999 FEW004 SCT020 BKN030 12/07 Q1026
RJOR 232300Z 02013KT 9999 FEW002 SCT020 BKN030 12/08 Q1025
RJOR 232200Z 01010KT 9999 FEW002 SCT020 BKN030 12/08 Q1024
RJOR 232130Z VRB02KT 9999 FEW002 SCT020 BKN030 10/10 Q1024
RJOR 232110Z VRB02KT 9999 FEW002 SCT020 BKN030 10/10 Q1023 RMK 1ST002 3CU020 5CU030 A3023
RJOR 231200Z 03007KT 9999 FEW015 SCT040 BKN080 12/10 Q1021
RJOR 231100Z 02009KT 9999 -SHRA FEW010 SCT015 BKN020 12/11 Q1021
RJOR 231000Z 03006KT 9999 FEW007 SCT010 BKN015 12/11 Q1020
RJOR 230900Z 02010KT 9999 -SHRA FEW007 SCT010 BKN015 12/11 Q1020
RJOR 230800Z 01008KT 9999 FEW007 SCT010 BKN015 12/11 Q1019
RJOR 230700Z 01008KT 9999 FEW007 SCT010 BKN015 12/11 Q1018